Time;durP1;ratioP1;P1;durP2;ratioP2;P2;SDS_P1;SDS_P2;PMS_P1;PMS_P2;Temp;Humidity;BMP_temperature;BMP_pressure;BME280_temperature;BME280_humidity;BME280_pressure;Samples;Min_cycle;Max_cycle;Signal;HPM_P1;HPM_P2
2022/10/29 00:00:37;;;;;;;52.28;23.30;;;;;;;;;;4978904;28;20122;-79
2022/10/29 00:03:03;;;;;;;54.33;21.50;;;;;;;;;;4980930;28;20023;-79
2022/10/29 00:05:29;;;;;;;47.63;21.52;;;;;;;;;;4978895;28;20051;-79
2022/10/29 00:07:55;;;;;;;43.05;20.92;;;;;;;;;;4980607;28;20093;-79
2022/10/29 00:10:22;;;;;;;47.90;22.33;;;;;;;;;;4979499;28;20027;-79
2022/10/29 00:12:48;;;;;;;49.63;20.98;;;;;;;;;;4978022;28;20038;-79
2022/10/29 00:15:14;;;;;;;50.78;20.33;;;;;;;;;;4979284;28;20219;-80
2022/10/29 00:17:40;;;;;;;50.35;21.55;;;;;;;;;;4979786;28;20034;-79
2022/10/29 00:20:06;;;;;;;42.80;20.90;;;;;;;;;;4973826;28;20035;-79
2022/10/29 00:22:32;;;;;;;44.95;21.27;;;;;;;;;;4961297;28;20106;-79
2022/10/29 00:24:58;;;;;;;43.88;20.65;;;;;;;;;;4979191;28;20077;-80
2022/10/29 00:27:25;;;;;;;43.40;19.13;;;;;;;;;;4966581;28;20403;-79
2022/10/29 00:29:51;;;;;;;40.55;18.40;;;;;;;;;;4976765;28;20543;-80
2022/10/29 00:32:17;;;;;;;40.63;18.67;;;;;;;;;;4979263;28;20031;-79
2022/10/29 00:34:43;;;;;;;38.08;19.30;;;;;;;;;;4980274;28;20035;-79
2022/10/29 00:37:09;;;;;;;39.85;17.30;;;;;;;;;;4979121;28;20034;-79
2022/10/29 00:39:35;;;;;;;36.25;16.88;;;;;;;;;;4974023;28;20035;-78
2022/10/29 00:42:03;;;;;;;42.38;19.70;;;;;;;;;;4973689;28;20030;-79
2022/10/29 00:44:37;;;;;;;39.83;18.50;;;;;;;;;;4978694;28;20021;-79
2022/10/29 00:47:39;;;;;;;40.92;18.00;;;;;;;;;;4975935;28;20058;-79
2022/10/29 00:50:08;;;;;;;46.13;20.30;;;;;;;;;;4928962;29;20031;-79
2022/10/29 00:52:35;;;;;;;39.30;18.50;;;;;;;;;;4938090;29;20068;-80
2022/10/29 00:55:03;;;;;;;37.13;16.67;;;;;;;;;;4937575;29;20031;-78
2022/10/29 00:57:30;;;;;;;43.22;18.17;;;;;;;;;;4938404;29;20044;-79
2022/10/29 00:59:58;;;;;;;38.50;17.65;;;;;;;;;;4938917;29;20043;-80
2022/10/29 01:02:25;;;;;;;46.85;20.35;;;;;;;;;;4936941;29;20048;-80
2022/10/29 01:04:52;;;;;;;43.70;19.98;;;;;;;;;;4939699;29;20062;-80
2022/10/29 01:07:19;;;;;;;42.55;18.92;;;;;;;;;;4938626;29;20519;-79
2022/10/29 01:09:45;;;;;;;43.00;19.92;;;;;;;;;;4940043;29;20146;-79
2022/10/29 01:12:20;;;;;;;43.50;19.63;;;;;;;;;;4939883;29;20162;-79
2022/10/29 01:14:46;;;;;;;43.83;18.85;;;;;;;;;;4941183;29;20069;-78
2022/10/29 01:17:21;;;;;;;39.45;19.15;;;;;;;;;;4955632;29;20047;-79
2022/10/29 01:19:52;;;;;;;37.83;18.30;;;;;;;;;;4955237;29;20582;-79
2022/10/29 01:22:32;;;;;;;38.33;17.20;;;;;;;;;;4937142;29;20091;-79
2022/10/29 01:25:27;;;;;;;36.80;17.15;;;;;;;;;;4985863;28;20050;-79
2022/10/29 01:28:02;;;;;;;35.17;18.00;;;;;;;;;;4977919;28;20504;-79
2022/10/29 01:30:46;;;;;;;33.28;16.90;;;;;;;;;;4977863;28;20029;-79
2022/10/29 01:33:17;;;;;;;37.25;17.42;;;;;;;;;;4977623;28;20027;-79
2022/10/29 01:35:47;;;;;;;38.97;17.77;;;;;;;;;;4978835;28;20014;-79
2022/10/29 01:38:22;;;;;;;34.20;17.02;;;;;;;;;;4977860;28;20023;-79
2022/10/29 01:40:51;;;;;;;32.95;16.95;;;;;;;;;;4976473;28;20030;-79
2022/10/29 01:43:30;;;;;;;30.67;17.58;;;;;;;;;;4977611;28;20031;-79
2022/10/29 01:46:01;;;;;;;31.60;15.90;;;;;;;;;;4977946;28;20023;-80
2022/10/29 01:48:33;;;;;;;29.38;16.42;;;;;;;;;;4978432;28;20086;-78
2022/10/29 01:51:02;;;;;;;27.33;15.25;;;;;;;;;;4977869;28;20089;-79
2022/10/29 01:53:29;;;;;;;27.90;14.82;;;;;;;;;;4977457;28;20034;-78
2022/10/29 01:55:55;;;;;;;26.65;14.48;;;;;;;;;;4978238;28;20061;-77
2022/10/29 01:58:22;;;;;;;28.27;14.93;;;;;;;;;;4976773;28;20082;-79
2022/10/29 02:00:54;;;;;;;28.77;14.95;;;;;;;;;;4975942;28;20038;-79
2022/10/29 02:03:26;;;;;;;28.73;16.42;;;;;;;;;;4970103;28;20035;-79
2022/10/29 02:05:55;;;;;;;28.10;15.57;;;;;;;;;;4961339;28;20030;-80
2022/10/29 02:08:21;;;;;;;34.08;17.05;;;;;;;;;;4976841;28;20023;-79
2022/10/29 02:10:52;;;;;;;27.90;15.98;;;;;;;;;;4976892;28;20031;-79
2022/10/29 02:13:22;;;;;;;30.30;15.20;;;;;;;;;;4977908;28;20035;-79
2022/10/29 02:15:49;;;;;;;27.38;14.68;;;;;;;;;;4977608;28;20030;-78
2022/10/29 02:18:16;;;;;;;26.83;14.75;;;;;;;;;;4977126;28;20117;-79
2022/10/29 02:20:43;;;;;;;30.30;14.90;;;;;;;;;;4977222;28;20047;-79
2022/10/29 02:23:09;;;;;;;24.70;13.50;;;;;;;;;;4977361;28;20027;-78
2022/10/29 02:25:36;;;;;;;28.02;15.65;;;;;;;;;;4977798;28;20031;-79
2022/10/29 02:28:02;;;;;;;28.38;15.32;;;;;;;;;;4976191;28;20045;-79
2022/10/29 02:30:28;;;;;;;25.17;14.73;;;;;;;;;;4977019;28;20034;-79
2022/10/29 02:32:54;;;;;;;32.63;16.90;;;;;;;;;;4977764;28;20033;-79
2022/10/29 02:35:20;;;;;;;28.40;14.52;;;;;;;;;;4977116;28;20041;-77
2022/10/29 02:37:46;;;;;;;23.20;12.90;;;;;;;;;;4976229;28;20062;-79
2022/10/29 02:40:12;;;;;;;25.38;14.02;;;;;;;;;;4976545;28;20407;-79
2022/10/29 02:42:38;;;;;;;26.63;13.85;;;;;;;;;;4976814;28;20035;-79
2022/10/29 02:45:05;;;;;;;28.92;14.20;;;;;;;;;;4978263;28;20062;-80
2022/10/29 02:47:31;;;;;;;27.85;15.40;;;;;;;;;;4977622;28;20037;-78
2022/10/29 02:49:57;;;;;;;28.33;14.55;;;;;;;;;;4977288;28;20027;-80
2022/10/29 02:52:23;;;;;;;27.17;14.48;;;;;;;;;;4978834;28;20027;-80
2022/10/29 02:54:49;;;;;;;24.90;13.63;;;;;;;;;;4980335;28;20034;-80
2022/10/29 02:57:15;;;;;;;25.40;13.73;;;;;;;;;;4980386;28;20031;-79
2022/10/29 02:59:41;;;;;;;23.75;13.45;;;;;;;;;;4980355;28;20023;-79
2022/10/29 03:02:07;;;;;;;23.58;12.93;;;;;;;;;;4979482;28;20046;-79
2022/10/29 03:04:33;;;;;;;25.27;13.30;;;;;;;;;;4981860;28;20228;-79
2022/10/29 03:06:59;;;;;;;24.48;12.95;;;;;;;;;;4981638;28;20062;-79
2022/10/29 03:09:25;;;;;;;27.23;15.15;;;;;;;;;;4980126;28;20039;-79
2022/10/29 03:11:51;;;;;;;29.83;14.25;;;;;;;;;;4981603;28;20030;-80
2022/10/29 03:14:17;;;;;;;30.48;15.20;;;;;;;;;;4982104;28;20033;-79
2022/10/29 03:16:44;;;;;;;30.60;15.27;;;;;;;;;;4980896;28;20090;-79
2022/10/29 03:19:10;;;;;;;30.10;15.73;;;;;;;;;;4981393;28;20486;-79
2022/10/29 03:21:36;;;;;;;27.88;14.82;;;;;;;;;;4979898;28;20470;-79
2022/10/29 03:24:03;;;;;;;28.92;14.25;;;;;;;;;;4980528;28;20438;-79
2022/10/29 03:26:29;;;;;;;25.67;13.55;;;;;;;;;;4980286;28;20019;-79
2022/10/29 03:28:55;;;;;;;29.50;14.15;;;;;;;;;;4980559;28;20186;-79
2022/10/29 03:31:21;;;;;;;31.70;15.43;;;;;;;;;;4974651;28;20035;-80
2022/10/29 03:33:47;;;;;;;32.42;15.63;;;;;;;;;;4980819;28;20394;-80
2022/10/29 03:36:13;;;;;;;27.65;14.20;;;;;;;;;;4980452;28;20030;-80
2022/10/29 03:38:40;;;;;;;27.08;14.30;;;;;;;;;;4978652;28;20031;-79
2022/10/29 03:41:09;;;;;;;26.77;14.27;;;;;;;;;;4980172;28;20522;-79
2022/10/29 03:43:36;;;;;;;26.17;13.30;;;;;;;;;;4980997;28;20372;-80
2022/10/29 03:46:02;;;;;;;29.83;15.27;;;;;;;;;;4979734;28;20058;-79
2022/10/29 03:48:28;;;;;;;29.85;15.38;;;;;;;;;;4979121;28;20030;-80
2022/10/29 03:50:55;;;;;;;30.38;15.05;;;;;;;;;;4977897;28;20039;-79
2022/10/29 03:53:21;;;;;;;29.92;13.80;;;;;;;;;;4979962;28;20414;-79
2022/10/29 03:55:47;;;;;;;26.88;13.18;;;;;;;;;;4979949;28;20062;-80
2022/10/29 03:58:13;;;;;;;27.33;13.45;;;;;;;;;;4971947;28;20035;-79
2022/10/29 04:00:39;;;;;;;27.83;13.80;;;;;;;;;;4974964;28;20051;-79
2022/10/29 04:03:05;;;;;;;30.92;14.48;;;;;;;;;;4977841;28;20082;-80
2022/10/29 04:05:31;;;;;;;34.20;16.05;;;;;;;;;;4968572;28;20035;-79
2022/10/29 04:07:57;;;;;;;30.48;14.50;;;;;;;;;;4961227;29;20072;-78
2022/10/29 04:10:24;;;;;;;26.70;14.30;;;;;;;;;;4976907;28;20043;-79
2022/10/29 04:12:50;;;;;;;26.40;13.75;;;;;;;;;;4980048;28;20034;-80
2022/10/29 04:15:16;;;;;;;32.17;15.05;;;;;;;;;;4979100;28;20121;-80
2022/10/29 04:17:42;;;;;;;31.20;14.43;;;;;;;;;;4980598;28;20058;-79
2022/10/29 04:20:08;;;;;;;26.10;13.68;;;;;;;;;;4970085;28;20054;-78
2022/10/29 04:22:34;;;;;;;26.67;13.85;;;;;;;;;;4966310;28;20062;-79
2022/10/29 04:25:00;;;;;;;25.48;12.93;;;;;;;;;;4969946;28;20061;-80
2022/10/29 04:27:27;;;;;;;24.60;13.07;;;;;;;;;;4965011;28;20449;-80
2022/10/29 04:29:53;;;;;;;23.40;13.02;;;;;;;;;;4960941;28;20018;-80
2022/10/29 04:32:19;;;;;;;27.42;13.90;;;;;;;;;;4972508;28;20034;-78
2022/10/29 04:34:45;;;;;;;22.77;12.73;;;;;;;;;;4977273;28;20109;-79
2022/10/29 04:37:11;;;;;;;22.50;11.70;;;;;;;;;;4980328;28;20046;-79
2022/10/29 04:39:37;;;;;;;26.52;13.00;;;;;;;;;;4965092;28;20031;-79
2022/10/29 04:42:03;;;;;;;24.00;12.07;;;;;;;;;;4962914;28;20066;-79
2022/10/29 04:44:29;;;;;;;22.88;12.25;;;;;;;;;;4977586;28;20062;-79
2022/10/29 04:46:55;;;;;;;22.83;12.63;;;;;;;;;;4972214;28;20034;-80
2022/10/29 04:49:21;;;;;;;24.67;12.43;;;;;;;;;;4971497;28;20126;-79
2022/10/29 04:51:47;;;;;;;24.50;12.77;;;;;;;;;;4977291;28;20510;-78
2022/10/29 04:54:14;;;;;;;24.35;11.88;;;;;;;;;;4979865;28;20082;-79
2022/10/29 04:56:40;;;;;;;23.35;12.07;;;;;;;;;;4978317;28;20520;-78
2022/10/29 04:59:06;;;;;;;21.67;12.70;;;;;;;;;;4977558;28;20118;-79
2022/10/29 05:01:32;;;;;;;21.58;12.10;;;;;;;;;;4978221;28;20029;-78
2022/10/29 05:03:58;;;;;;;22.95;12.27;;;;;;;;;;4977853;28;20723;-78
2022/10/29 05:06:24;;;;;;;23.20;12.13;;;;;;;;;;4977466;28;20035;-79
2022/10/29 05:08:50;;;;;;;24.35;13.55;;;;;;;;;;4977842;28;20023;-78
2022/10/29 05:11:16;;;;;;;21.77;11.38;;;;;;;;;;4978963;28;20168;-79
2022/10/29 05:13:44;;;;;;;21.95;12.10;;;;;;;;;;4972550;28;20062;-79
2022/10/29 05:16:10;;;;;;;20.50;11.85;;;;;;;;;;4971391;28;20030;-78
2022/10/29 05:18:37;;;;;;;20.80;11.55;;;;;;;;;;4974183;28;20047;-78
2022/10/29 05:21:03;;;;;;;20.00;12.32;;;;;;;;;;4976040;28;20049;-78
2022/10/29 05:23:29;;;;;;;21.13;11.55;;;;;;;;;;4977823;28;20031;-79
2022/10/29 05:25:55;;;;;;;23.75;11.80;;;;;;;;;;4977521;28;20019;-78
2022/10/29 05:28:22;;;;;;;21.95;11.55;;;;;;;;;;4977058;28;20033;-78
2022/10/29 05:30:49;;;;;;;23.77;11.77;;;;;;;;;;4977530;28;20490;-78
2022/10/29 05:33:16;;;;;;;22.23;11.70;;;;;;;;;;4986679;28;20026;-78
2022/10/29 05:35:42;;;;;;;23.38;12.20;;;;;;;;;;4990815;28;20065;-78
2022/10/29 05:38:09;;;;;;;22.33;12.13;;;;;;;;;;4960115;28;20050;-78
2022/10/29 05:40:35;;;;;;;22.40;11.73;;;;;;;;;;4975958;28;20033;-79
2022/10/29 05:43:01;;;;;;;23.17;12.80;;;;;;;;;;4973491;28;20022;-78
2022/10/29 05:45:27;;;;;;;22.33;12.07;;;;;;;;;;4964201;28;20035;-77
2022/10/29 05:48:00;;;;;;;26.75;14.98;;;;;;;;;;4972414;28;20015;-77
2022/10/29 05:50:27;;;;;;;26.10;13.70;;;;;;;;;;4973527;28;20027;-77
2022/10/29 05:53:00;;;;;;;26.23;14.68;;;;;;;;;;4974482;28;20043;-77
2022/10/29 05:55:26;;;;;;;25.73;13.73;;;;;;;;;;4975250;28;20027;-77
2022/10/29 05:57:56;;;;;;;25.55;13.75;;;;;;;;;;4973520;28;20606;-77
2022/10/29 06:00:22;;;;;;;27.63;14.25;;;;;;;;;;4973896;28;20047;-77
2022/10/29 06:02:48;;;;;;;26.25;13.75;;;;;;;;;;4970544;28;20026;-77
2022/10/29 06:05:14;;;;;;;26.52;13.48;;;;;;;;;;4972457;28;20026;-77
2022/10/29 06:07:40;;;;;;;21.42;12.63;;;;;;;;;;4973308;28;20471;-77
2022/10/29 06:10:06;;;;;;;24.65;12.27;;;;;;;;;;4973631;28;20033;-77
2022/10/29 06:12:33;;;;;;;24.02;12.90;;;;;;;;;;4971933;28;20466;-77
2022/10/29 06:14:59;;;;;;;26.08;14.30;;;;;;;;;;4972079;28;20506;-77
2022/10/29 06:17:25;;;;;;;24.60;12.77;;;;;;;;;;4968900;28;20380;-77
2022/10/29 06:19:51;;;;;;;23.52;13.73;;;;;;;;;;4971317;28;20497;-77
2022/10/29 06:22:17;;;;;;;24.25;13.32;;;;;;;;;;4973672;28;20064;-78
2022/10/29 06:24:43;;;;;;;27.42;14.98;;;;;;;;;;4977443;28;20030;-75
2022/10/29 06:27:09;;;;;;;25.70;14.73;;;;;;;;;;4972536;28;20026;-78
2022/10/29 06:29:35;;;;;;;27.42;15.75;;;;;;;;;;4976110;28;20041;-77
2022/10/29 06:32:01;;;;;;;29.23;14.25;;;;;;;;;;4976669;28;20030;-78
2022/10/29 06:34:27;;;;;;;24.80;13.35;;;;;;;;;;4977379;28;20034;-78
2022/10/29 06:36:55;;;;;;;26.52;15.00;;;;;;;;;;4976571;28;20085;-79
2022/10/29 06:39:21;;;;;;;32.15;16.17;;;;;;;;;;4977222;28;20035;-78
2022/10/29 06:41:47;;;;;;;29.65;17.10;;;;;;;;;;4976088;28;20078;-78
2022/10/29 06:44:13;;;;;;;27.25;14.95;;;;;;;;;;4976573;28;20026;-77
2022/10/29 06:46:40;;;;;;;28.63;13.88;;;;;;;;;;4977217;28;20117;-77
2022/10/29 06:49:06;;;;;;;29.50;16.08;;;;;;;;;;4977051;28;20041;-76
2022/10/29 06:51:32;;;;;;;31.90;18.15;;;;;;;;;;4975147;28;20073;-77
2022/10/29 06:53:58;;;;;;;30.00;16.30;;;;;;;;;;4974115;28;20031;-78
2022/10/29 06:56:24;;;;;;;27.55;15.52;;;;;;;;;;4974766;28;20085;-78
2022/10/29 06:58:51;;;;;;;29.27;15.60;;;;;;;;;;4971827;28;20490;-76
2022/10/29 07:01:17;;;;;;;29.50;16.25;;;;;;;;;;4968688;28;20019;-77
2022/10/29 07:03:43;;;;;;;31.27;15.38;;;;;;;;;;4975555;28;20033;-77
2022/10/29 07:06:09;;;;;;;24.67;14.48;;;;;;;;;;4971781;28;20027;-77
2022/10/29 07:08:35;;;;;;;27.52;14.25;;;;;;;;;;4973511;28;20035;-78
2022/10/29 07:11:01;;;;;;;29.00;15.48;;;;;;;;;;4977422;28;20087;-77
2022/10/29 07:13:28;;;;;;;37.15;19.60;;;;;;;;;;4977006;28;20491;-75
2022/10/29 07:15:54;;;;;;;33.70;17.63;;;;;;;;;;4976230;28;20027;-78
2022/10/29 07:18:20;;;;;;;32.67;16.48;;;;;;;;;;4974434;28;20031;-77
2022/10/29 07:20:46;;;;;;;31.80;16.73;;;;;;;;;;4973866;28;20042;-77
2022/10/29 07:23:13;;;;;;;35.00;16.27;;;;;;;;;;4974681;28;20026;-78
2022/10/29 07:25:41;;;;;;;30.65;15.63;;;;;;;;;;4965133;28;20023;-76
2022/10/29 07:28:10;;;;;;;29.85;16.02;;;;;;;;;;4976777;28;20033;-78
2022/10/29 07:30:36;;;;;;;27.38;13.65;;;;;;;;;;4975504;28;20037;-78
2022/10/29 07:33:02;;;;;;;30.92;15.57;;;;;;;;;;4976379;28;20066;-78
2022/10/29 07:35:28;;;;;;;29.33;15.50;;;;;;;;;;4976266;28;20026;-78
2022/10/29 07:38:00;;;;;;;30.83;15.77;;;;;;;;;;4974058;28;20085;-77
2022/10/29 07:40:26;;;;;;;33.35;15.15;;;;;;;;;;4975271;28;20081;-77
2022/10/29 07:42:52;;;;;;;35.80;18.48;;;;;;;;;;4972979;28;20019;-77
2022/10/29 07:45:19;;;;;;;31.88;16.48;;;;;;;;;;4970667;28;20023;-78
2022/10/29 07:47:45;;;;;;;27.10;16.30;;;;;;;;;;4974501;28;20442;-77
2022/10/29 07:50:11;;;;;;;32.30;18.05;;;;;;;;;;4973741;28;20030;-77
2022/10/29 07:52:38;;;;;;;29.98;16.38;;;;;;;;;;4972522;28;20026;-78
2022/10/29 07:55:04;;;;;;;31.40;17.25;;;;;;;;;;4975512;28;20038;-78
2022/10/29 07:57:30;;;;;;;29.17;16.73;;;;;;;;;;4976635;28;20212;-77
2022/10/29 07:59:56;;;;;;;33.00;16.75;;;;;;;;;;4975456;28;20166;-78
2022/10/29 08:02:22;;;;;;;36.33;17.95;;;;;;;;;;4974786;28;20406;-77
2022/10/29 08:04:48;;;;;;;29.75;17.23;;;;;;;;;;4976790;28;20027;-78
2022/10/29 08:07:14;;;;;;;34.25;17.92;;;;;;;;;;4976837;28;20033;-77
2022/10/29 08:09:40;;;;;;;36.10;17.48;;;;;;;;;;4975865;28;20046;-77
2022/10/29 08:12:08;;;;;;;36.17;19.27;;;;;;;;;;4976682;28;20494;-78
2022/10/29 08:14:34;;;;;;;33.03;18.30;;;;;;;;;;4977742;28;20533;-77
2022/10/29 08:17:00;;;;;;;36.80;19.90;;;;;;;;;;4978071;28;20151;-78
2022/10/29 08:19:28;;;;;;;47.42;25.33;;;;;;;;;;4975836;28;20047;-78
2022/10/29 08:21:54;;;;;;;40.97;23.77;;;;;;;;;;4977606;28;20494;-77
2022/10/29 08:24:20;;;;;;;33.25;19.65;;;;;;;;;;4973325;28;20034;-77
2022/10/29 08:26:46;;;;;;;36.75;23.40;;;;;;;;;;4973790;28;20030;-77
2022/10/29 08:29:12;;;;;;;36.28;20.08;;;;;;;;;;4979096;28;20061;-78
2022/10/29 08:31:39;;;;;;;34.38;19.73;;;;;;;;;;4977053;28;20101;-78
2022/10/29 08:34:05;;;;;;;32.67;17.60;;;;;;;;;;4979251;28;20057;-79
2022/10/29 08:36:31;;;;;;;31.70;18.23;;;;;;;;;;4978030;28;20434;-79
2022/10/29 08:38:57;;;;;;;31.35;18.48;;;;;;;;;;4976998;28;20038;-78
2022/10/29 08:41:26;;;;;;;29.83;18.20;;;;;;;;;;4976727;28;20374;-78
2022/10/29 08:44:01;;;;;;;30.77;18.88;;;;;;;;;;4976834;28;20026;-78
2022/10/29 08:46:27;;;;;;;30.98;17.55;;;;;;;;;;4977933;28;20061;-78
2022/10/29 08:48:57;;;;;;;29.77;18.67;;;;;;;;;;4977055;28;20512;-78
2022/10/29 08:51:27;;;;;;;28.50;16.35;;;;;;;;;;4976560;28;21331;-78
2022/10/29 08:53:53;;;;;;;28.58;15.75;;;;;;;;;;4975454;28;20035;-78
2022/10/29 08:56:33;;;;;;;29.50;16.70;;;;;;;;;;4977760;28;20019;-78
2022/10/29 08:58:59;;;;;;;29.45;16.40;;;;;;;;;;4979150;28;20027;-78
2022/10/29 09:01:25;;;;;;;28.25;16.58;;;;;;;;;;4977790;28;20030;-78
2022/10/29 09:03:52;;;;;;;27.80;17.33;;;;;;;;;;4977698;28;20031;-77
2022/10/29 09:06:31;;;;;;;27.98;18.13;;;;;;;;;;4978084;28;20031;-78
2022/10/29 09:09:05;;;;;;;31.23;17.63;;;;;;;;;;4977492;28;20078;-78
2022/10/29 09:11:47;;;;;;;31.30;17.58;;;;;;;;;;4969236;28;20098;-77
2022/10/29 09:14:32;;;;;;;30.05;16.67;;;;;;;;;;4956191;28;20024;-76
2022/10/29 09:17:16;;;;;;;36.10;19.60;;;;;;;;;;4973382;28;20570;-77
2022/10/29 09:20:22;;;;;;;33.40;18.92;;;;;;;;;;4972662;28;20507;-76
2022/10/29 09:22:53;;;;;;;34.55;19.45;;;;;;;;;;4935746;29;20027;-77
2022/10/29 09:25:27;;;;;;;31.98;18.35;;;;;;;;;;4951892;29;20051;-76
2022/10/29 09:27:59;;;;;;;30.15;18.48;;;;;;;;;;4934968;29;20431;-77
2022/10/29 09:30:29;;;;;;;35.15;20.50;;;;;;;;;;4951139;29;20444;-77
2022/10/29 09:33:13;;;;;;;36.25;19.05;;;;;;;;;;4936985;29;20036;-76
2022/10/29 09:36:00;;;;;;;37.30;20.33;;;;;;;;;;4933885;29;21678;-78
2022/10/29 09:38:34;;;;;;;37.88;21.27;;;;;;;;;;4929246;28;20027;-78
2022/10/29 09:41:01;;;;;;;33.08;20.80;;;;;;;;;;4936254;29;20082;-77
2022/10/29 09:43:39;;;;;;;36.53;21.30;;;;;;;;;;4950744;29;20486;-77
2022/10/29 09:46:11;;;;;;;35.08;20.98;;;;;;;;;;4942904;29;20061;-77
2022/10/29 09:48:45;;;;;;;35.17;21.10;;;;;;;;;;4932131;29;20079;-77
2022/10/29 09:51:23;;;;;;;35.90;21.40;;;;;;;;;;4937168;29;20031;-77
2022/10/29 09:53:50;;;;;;;34.97;21.42;;;;;;;;;;4964186;28;20042;-77
2022/10/29 09:56:16;;;;;;;31.20;18.88;;;;;;;;;;4972923;28;20403;-76
2022/10/29 09:58:44;;;;;;;32.42;20.00;;;;;;;;;;4972743;28;20080;-77
2022/10/29 10:01:11;;;;;;;30.63;18.60;;;;;;;;;;4972215;28;20392;-77
2022/10/29 10:03:44;;;;;;;33.05;20.40;;;;;;;;;;4972623;28;20046;-78
2022/10/29 10:06:12;;;;;;;33.63;19.83;;;;;;;;;;4971556;28;20031;-78
2022/10/29 10:08:57;;;;;;;33.70;19.15;;;;;;;;;;4976702;28;20035;-79
2022/10/29 10:11:23;;;;;;;32.47;19.98;;;;;;;;;;4977850;28;20027;-78
2022/10/29 10:13:55;;;;;;;34.45;19.90;;;;;;;;;;4972241;28;20023;-77
2022/10/29 10:16:26;;;;;;;33.60;20.25;;;;;;;;;;4972642;28;20049;-77
2022/10/29 10:18:52;;;;;;;34.70;21.63;;;;;;;;;;4971547;28;20063;-77
2022/10/29 10:21:26;;;;;;;34.78;20.60;;;;;;;;;;4972403;28;20133;-80
2022/10/29 10:23:52;;;;;;;38.65;22.73;;;;;;;;;;4972380;28;20066;-76
2022/10/29 10:26:28;;;;;;;35.90;21.05;;;;;;;;;;4977069;28;20031;-78
2022/10/29 10:29:13;;;;;;;36.80;20.90;;;;;;;;;;4975252;28;20102;-77
2022/10/29 10:31:40;;;;;;;35.63;21.20;;;;;;;;;;4960154;28;20034;-76
2022/10/29 10:34:19;;;;;;;34.92;20.70;;;;;;;;;;4968713;28;20030;-77
2022/10/29 10:36:48;;;;;;;29.95;19.05;;;;;;;;;;4978236;28;20109;-78
2022/10/29 10:39:25;;;;;;;30.85;20.45;;;;;;;;;;4977069;28;20031;-79
2022/10/29 10:41:51;;;;;;;34.83;20.63;;;;;;;;;;4978207;28;20106;-79
2022/10/29 10:44:19;;;;;;;34.97;21.60;;;;;;;;;;4978475;28;20393;-79
2022/10/29 10:46:45;;;;;;;36.08;22.02;;;;;;;;;;4978425;28;20102;-79
2022/10/29 10:49:11;;;;;;;32.22;21.98;;;;;;;;;;4969714;28;20054;-78
2022/10/29 10:51:38;;;;;;;37.03;22.77;;;;;;;;;;4958246;29;20422;-77
2022/10/29 10:54:20;;;;;;;34.33;19.73;;;;;;;;;;4958753;29;20059;-79
2022/10/29 10:56:56;;;;;;;30.77;19.63;;;;;;;;;;4965855;28;20081;-78
2022/10/29 10:59:23;;;;;;;31.85;20.23;;;;;;;;;;4977335;28;20050;-78
2022/10/29 11:01:50;;;;;;;31.50;19.95;;;;;;;;;;4978406;28;20026;-77
2022/10/29 11:04:36;;;;;;;35.58;19.83;;;;;;;;;;4976443;28;20078;-79
2022/10/29 11:07:04;;;;;;;33.60;20.73;;;;;;;;;;4976847;28;20113;-80
2022/10/29 11:09:36;;;;;;;30.10;19.83;;;;;;;;;;4976634;28;20471;-80
2022/10/29 11:12:08;;;;;;;37.50;21.23;;;;;;;;;;4978011;28;20500;-80
2022/10/29 11:14:41;;;;;;;32.40;20.67;;;;;;;;;;4979882;28;20102;-78
2022/10/29 11:17:17;;;;;;;34.03;20.30;;;;;;;;;;4980387;28;20031;-78
2022/10/29 11:19:46;;;;;;;34.70;20.42;;;;;;;;;;4981384;28;20482;-80
2022/10/29 11:22:36;;;;;;;33.35;21.58;;;;;;;;;;4980871;28;20046;-79
2022/10/29 11:25:16;;;;;;;38.83;22.05;;;;;;;;;;4975695;28;20431;-79
2022/10/29 11:27:47;;;;;;;37.08;21.83;;;;;;;;;;4961717;29;20037;-77
2022/10/29 11:30:17;;;;;;;37.85;22.85;;;;;;;;;;4969342;28;20746;-79
2022/10/29 11:32:52;;;;;;;38.47;22.42;;;;;;;;;;4985400;28;20026;-77
2022/10/29 11:35:27;;;;;;;38.70;20.77;;;;;;;;;;4982391;28;20022;-78
2022/10/29 11:38:08;;;;;;;39.40;22.55;;;;;;;;;;4982929;28;20027;-78
2022/10/29 11:40:37;;;;;;;38.85;23.10;;;;;;;;;;4980989;28;20035;-79
2022/10/29 11:43:09;;;;;;;40.30;22.75;;;;;;;;;;4979527;28;20051;-78
2022/10/29 11:45:54;;;;;;;40.55;23.60;;;;;;;;;;4981903;28;20023;-78
2022/10/29 11:48:46;;;;;;;37.65;22.35;;;;;;;;;;4986777;28;20026;-76
2022/10/29 11:51:20;;;;;;;39.08;22.92;;;;;;;;;;4978166;28;20105;-79
2022/10/29 11:54:05;;;;;;;42.88;24.50;;;;;;;;;;4973772;28;20054;-78
2022/10/29 11:56:43;;;;;;;36.50;22.77;;;;;;;;;;4974332;28;20038;-78
2022/10/29 11:59:25;;;;;;;39.15;22.35;;;;;;;;;;4974445;28;20023;-78
2022/10/29 12:02:04;;;;;;;38.35;23.23;;;;;;;;;;4956218;28;20043;-77
2022/10/29 12:04:34;;;;;;;37.50;22.50;;;;;;;;;;4971390;28;20089;-78
2022/10/29 12:07:39;;;;;;;38.33;22.45;;;;;;;;;;4970222;28;20023;-78
2022/10/29 12:10:07;;;;;;;39.42;23.17;;;;;;;;;;4914948;29;20032;-78
2022/10/29 12:12:39;;;;;;;40.75;23.38;;;;;;;;;;4913712;29;20043;-78
2022/10/29 12:15:14;;;;;;;43.65;25.60;;;;;;;;;;4944067;28;20042;-78
2022/10/29 12:17:46;;;;;;;45.55;25.17;;;;;;;;;;4974254;28;20109;-78
2022/10/29 12:20:27;;;;;;;43.90;23.73;;;;;;;;;;4974509;28;20042;-78
2022/10/29 12:22:58;;;;;;;40.63;22.98;;;;;;;;;;4974723;28;20484;-78
2022/10/29 12:25:29;;;;;;;38.47;22.92;;;;;;;;;;4975222;28;20023;-78
2022/10/29 12:27:58;;;;;;;36.88;20.95;;;;;;;;;;4974619;28;20034;-78
2022/10/29 12:30:25;;;;;;;36.05;19.45;;;;;;;;;;4975077;28;20092;-79
2022/10/29 12:33:01;;;;;;;34.92;19.63;;;;;;;;;;4973525;28;20445;-77
2022/10/29 12:35:54;;;;;;;34.65;18.73;;;;;;;;;;4975423;28;20490;-78
2022/10/29 12:38:29;;;;;;;34.73;20.30;;;;;;;;;;4973171;28;20046;-78
2022/10/29 12:40:59;;;;;;;33.63;19.67;;;;;;;;;;4972961;28;20277;-79
2022/10/29 12:43:26;;;;;;;37.10;20.33;;;;;;;;;;4971187;28;20027;-78
2022/10/29 12:46:11;;;;;;;33.63;20.88;;;;;;;;;;4972715;28;20030;-78
2022/10/29 12:49:00;;;;;;;34.08;19.92;;;;;;;;;;4972640;28;20109;-77
2022/10/29 12:51:29;;;;;;;34.95;19.67;;;;;;;;;;4968355;28;20132;-76
2022/10/29 12:54:01;;;;;;;34.38;20.02;;;;;;;;;;4973170;28;20054;-78
2022/10/29 12:56:28;;;;;;;33.67;18.60;;;;;;;;;;4980855;28;20034;-78
2022/10/29 12:58:58;;;;;;;31.92;19.27;;;;;;;;;;4955900;28;20076;-78
2022/10/29 13:01:27;;;;;;;34.97;21.15;;;;;;;;;;4957752;28;20027;-78
2022/10/29 13:03:53;;;;;;;33.65;19.58;;;;;;;;;;4972704;28;20030;-78
2022/10/29 13:06:38;;;;;;;42.38;21.15;;;;;;;;;;4974633;28;20014;-78
2022/10/29 13:09:20;;;;;;;40.30;21.92;;;;;;;;;;4977267;28;20027;-77
2022/10/29 13:11:48;;;;;;;37.90;22.70;;;;;;;;;;4984571;28;20537;-77
2022/10/29 13:14:33;;;;;;;42.70;22.40;;;;;;;;;;4973559;28;20035;-79
2022/10/29 13:17:00;;;;;;;46.67;24.77;;;;;;;;;;4973863;28;20027;-77
2022/10/29 13:19:33;;;;;;;47.55;24.15;;;;;;;;;;4973166;28;20041;-78
2022/10/29 13:21:59;;;;;;;43.85;23.67;;;;;;;;;;4970991;28;20055;-78
2022/10/29 13:24:26;;;;;;;45.10;22.45;;;;;;;;;;4973349;28;20031;-77
2022/10/29 13:27:00;;;;;;;43.22;23.15;;;;;;;;;;4973645;28;20505;-78
2022/10/29 13:29:44;;;;;;;40.08;22.75;;;;;;;;;;4973085;28;20041;-77
2022/10/29 13:32:29;;;;;;;38.95;21.30;;;;;;;;;;4973795;28;20030;-78
2022/10/29 13:34:57;;;;;;;38.05;21.55;;;;;;;;;;4964340;28;20058;-78
2022/10/29 13:37:47;;;;;;;34.17;21.00;;;;;;;;;;4974017;28;20027;-77
2022/10/29 13:40:23;;;;;;;35.55;20.50;;;;;;;;;;4969288;28;20077;-78
2022/10/29 13:43:04;;;;;;;35.25;19.17;;;;;;;;;;4961380;28;21651;-76
2022/10/29 13:45:32;;;;;;;34.50;18.50;;;;;;;;;;4974577;28;20034;-78
2022/10/29 13:48:00;;;;;;;33.72;19.80;;;;;;;;;;4976655;28;20019;-77
2022/10/29 13:50:26;;;;;;;35.00;19.55;;;;;;;;;;4972217;28;20031;-77
2022/10/29 13:52:53;;;;;;;36.72;20.52;;;;;;;;;;4970766;28;20054;-77
2022/10/29 13:55:20;;;;;;;41.53;22.92;;;;;;;;;;4971250;28;20089;-79
2022/10/29 13:57:46;;;;;;;42.63;23.25;;;;;;;;;;4977720;28;20030;-77
2022/10/29 14:00:12;;;;;;;39.05;21.65;;;;;;;;;;4972211;28;20115;-78
2022/10/29 14:02:53;;;;;;;39.50;22.25;;;;;;;;;;4973774;28;20458;-78
2022/10/29 14:05:22;;;;;;;45.20;23.90;;;;;;;;;;4955037;29;20027;-78
2022/10/29 14:08:00;;;;;;;47.90;26.60;;;;;;;;;;4957675;28;20113;-77
2022/10/29 14:10:32;;;;;;;44.35;24.33;;;;;;;;;;4972901;28;20341;-78
2022/10/29 14:13:00;;;;;;;40.67;20.90;;;;;;;;;;4973034;28;20030;-75
2022/10/29 14:15:26;;;;;;;37.53;20.60;;;;;;;;;;4973071;28;20550;-77
2022/10/29 14:17:52;;;;;;;34.78;20.05;;;;;;;;;;4972085;28;20023;-77
2022/10/29 14:20:20;;;;;;;38.28;20.80;;;;;;;;;;4972687;28;20474;-78
2022/10/29 14:22:46;;;;;;;36.53;20.67;;;;;;;;;;4972569;28;20023;-77
2022/10/29 14:25:24;;;;;;;40.17;21.27;;;;;;;;;;4970385;28;20050;-78
2022/10/29 14:28:09;;;;;;;42.03;21.33;;;;;;;;;;4971738;28;20019;-78
2022/10/29 14:30:35;;;;;;;36.00;20.95;;;;;;;;;;4959746;28;20394;-78